createdAt,value
2017-11-08T00:00:15.725Z,134.97
2017-11-08T00:02:43.254Z,135.13
2017-11-08T00:05:10.831Z,137.40
2017-11-08T00:07:38.360Z,154.93
2017-11-08T00:10:05.897Z,145.30
2017-11-08T00:12:33.468Z,165.50
2017-11-08T00:15:00.997Z,137.30
2017-11-08T00:17:28.519Z,145.90
2017-11-08T00:19:58.060Z,142.80
2017-11-08T00:22:25.588Z,176.13
2017-11-08T00:24:53.162Z,171.93
2017-11-08T00:27:20.681Z,145.57
2017-11-08T00:29:48.218Z,152.90
2017-11-08T00:32:15.895Z,142.20
2017-11-08T00:34:43.436Z,150.67
2017-11-08T00:37:10.956Z,122.43
2017-11-08T00:39:38.526Z,138.43
2017-11-08T00:42:06.057Z,151.47
2017-11-08T00:44:33.584Z,152.10
2017-11-08T00:47:01.314Z,109.90
2017-11-08T00:49:28.841Z,136.50
2017-11-08T00:51:56.366Z,119.43
2017-11-08T00:54:23.961Z,142.80
2017-11-08T00:56:51.476Z,164.60
2017-11-08T00:59:19.006Z,134.70
2017-11-08T01:01:47.049Z,167.67
2017-11-08T01:04:14.563Z,141.03
2017-11-08T01:06:42.094Z,148.47
2017-11-08T01:09:09.640Z,169.97
2017-11-08T01:11:37.202Z,135.00
2017-11-08T01:14:04.753Z,149.63
2017-11-08T01:16:33.320Z,121.47
2017-11-08T01:19:00.874Z,153.70
2017-11-08T01:21:28.449Z,143.57
2017-11-08T01:23:56.002Z,133.00
2017-11-08T01:26:23.519Z,154.93
2017-11-08T01:28:51.101Z,140.20
2017-11-08T01:31:18.629Z,151.40
2017-11-08T01:33:46.148Z,163.97
2017-11-08T01:36:13.724Z,116.30
2017-11-08T01:38:43.060Z,147.50
2017-11-08T01:41:16.824Z,165.37
2017-11-08T01:43:44.354Z,157.10
2017-11-08T01:46:17.105Z,155.43
2017-11-08T01:48:44.637Z,147.20
2017-11-08T01:51:14.132Z,136.43
2017-11-08T01:53:41.725Z,147.77
2017-11-08T01:56:09.313Z,147.50
2017-11-08T01:58:36.907Z,131.33
2017-11-08T02:01:04.502Z,149.43
2017-11-08T02:03:32.133Z,136.60
2017-11-08T02:05:59.656Z,138.47
2017-11-08T02:08:27.191Z,121.63
2017-11-08T02:10:54.810Z,126.00
2017-11-08T02:13:22.332Z,129.47
2017-11-08T02:15:50.611Z,140.07
2017-11-08T02:18:22.445Z,124.50
2017-11-08T02:20:50.005Z,136.33
2017-11-08T02:23:17.621Z,110.83
2017-11-08T02:25:45.332Z,149.60
2017-11-08T02:28:12.873Z,132.57
2017-11-08T02:30:40.416Z,142.37
2017-11-08T02:33:08.384Z,144.07
2017-11-08T02:35:35.951Z,117.37
2017-11-08T02:38:03.481Z,125.20
2017-11-08T02:40:31.038Z,142.27
2017-11-08T02:42:58.573Z,135.00
2017-11-08T02:45:34.793Z,136.57
2017-11-08T02:48:02.329Z,139.13
2017-11-08T02:50:30.272Z,138.43
2017-11-08T02:52:57.785Z,140.00
2017-11-08T02:55:25.320Z,139.10
2017-11-08T02:57:53.176Z,137.27
2017-11-08T03:00:20.719Z,138.10
2017-11-08T03:02:51.057Z,137.63
2017-11-08T03:05:18.661Z,131.97
2017-11-08T03:07:46.182Z,144.40
2017-11-08T03:10:13.714Z,144.77
2017-11-08T03:12:41.375Z,125.90
2017-11-08T03:15:08.906Z,134.13
2017-11-08T03:17:36.446Z,155.63
2017-11-08T03:20:04.216Z,142.07
2017-11-08T03:22:31.746Z,131.40
2017-11-08T03:24:59.283Z,136.97
2017-11-08T03:27:27.049Z,130.43
2017-11-08T03:29:54.584Z,142.97
2017-11-08T03:32:22.277Z,131.37
2017-11-08T03:34:49.862Z,129.60
2017-11-08T03:37:17.409Z,138.57
2017-11-08T03:39:44.966Z,140.90
2017-11-08T03:42:12.531Z,155.27
2017-11-08T03:44:40.189Z,152.80
2017-11-08T03:47:07.707Z,148.60
2017-11-08T03:49:35.269Z,160.87
2017-11-08T03:52:03.181Z,156.43
2017-11-08T03:54:30.716Z,163.10
2017-11-08T03:56:58.227Z,162.87
2017-11-08T03:59:25.910Z,151.70
2017-11-08T04:01:53.442Z,162.77
2017-11-08T04:04:20.970Z,155.73
2017-11-08T04:06:48.527Z,153.00
2017-11-08T04:09:16.081Z,145.27
2017-11-08T04:11:43.600Z,142.53
2017-11-08T04:14:11.336Z,141.57
2017-11-08T04:16:38.861Z,141.93
2017-11-08T04:19:06.398Z,161.10
2017-11-08T04:21:34.161Z,152.30
2017-11-08T04:24:01.712Z,142.43
2017-11-08T04:26:29.241Z,158.47
2017-11-08T04:28:56.980Z,145.37
2017-11-08T04:31:24.502Z,155.63
2017-11-08T04:33:52.040Z,149.20
2017-11-08T04:36:19.579Z,145.33
2017-11-08T04:38:47.105Z,150.50
2017-11-08T04:41:14.814Z,141.67
2017-11-08T04:43:42.328Z,147.00
2017-11-08T04:46:09.870Z,146.90
2017-11-08T04:48:38.177Z,167.10
2017-11-08T04:51:05.704Z,185.83
2017-11-08T04:53:33.229Z,170.60
2017-11-08T04:56:00.787Z,155.93
2017-11-08T04:58:28.304Z,127.47
2017-11-08T05:00:55.833Z,174.53
2017-11-08T05:03:23.397Z,152.20
2017-11-08T05:05:50.925Z,163.03
2017-11-08T05:08:18.511Z,133.30
2017-11-08T05:10:46.023Z,170.97
2017-11-08T05:13:13.588Z,149.30
2017-11-08T05:15:41.161Z,163.00
2017-11-08T05:18:08.682Z,153.33
2017-11-08T05:20:36.209Z,150.07
2017-11-08T05:23:03.792Z,142.73
2017-11-08T05:25:31.312Z,151.03
2017-11-08T05:27:58.825Z,150.83
2017-11-08T05:30:26.404Z,140.77
2017-11-08T05:32:53.941Z,157.13
2017-11-08T05:35:21.464Z,160.37
2017-11-08T05:37:49.008Z,203.53
2017-11-08T05:40:16.538Z,182.00
2017-11-08T05:42:44.083Z,156.43
2017-11-08T05:45:11.603Z,194.03
2017-11-08T05:47:39.628Z,167.93
2017-11-08T05:50:07.170Z,210.67
2017-11-08T05:52:34.697Z,164.37
2017-11-08T05:55:02.649Z,168.80
2017-11-08T05:57:30.169Z,219.67
2017-11-08T05:59:57.693Z,183.30
2017-11-08T06:02:25.265Z,200.00
2017-11-08T06:04:52.789Z,199.07
2017-11-08T06:07:20.314Z,200.60
2017-11-08T06:09:47.878Z,211.87
2017-11-08T06:12:15.395Z,194.87
2017-11-08T06:14:42.923Z,196.77
2017-11-08T06:17:10.504Z,190.83
2017-11-08T06:19:38.021Z,199.27
2017-11-08T06:22:05.540Z,175.20
2017-11-08T06:24:33.090Z,187.50
2017-11-08T06:27:00.627Z,210.73
2017-11-08T06:29:28.169Z,191.07
2017-11-08T06:31:55.717Z,166.03
2017-11-08T06:34:23.441Z,172.60
2017-11-08T06:36:50.961Z,172.93
2017-11-08T06:39:18.490Z,129.87
2017-11-08T06:41:46.242Z,190.30
2017-11-08T06:44:13.748Z,96.97
2017-11-08T06:46:41.285Z,119.17
2017-11-08T06:49:08.947Z,150.87
2017-11-08T06:51:36.472Z,152.63
2017-11-08T06:54:03.994Z,155.40
2017-11-08T06:56:31.556Z,193.30
2017-11-08T06:58:59.081Z,188.07
2017-11-08T07:01:26.672Z,161.50
2017-11-08T07:03:54.202Z,146.43
2017-11-08T07:06:21.716Z,166.20
2017-11-08T07:08:49.295Z,178.73
2017-11-08T07:11:16.830Z,155.70
2017-11-08T07:13:44.361Z,115.47
2017-11-08T07:16:11.924Z,148.83
2017-11-08T07:18:39.453Z,143.07
2017-11-08T07:21:06.973Z,141.40
2017-11-08T07:23:34.978Z,153.60
2017-11-08T07:26:02.515Z,128.37
2017-11-08T07:28:30.036Z,143.37
2017-11-08T07:30:58.014Z,142.53
2017-11-08T07:33:25.542Z,124.57
2017-11-08T07:35:53.124Z,100.03
2017-11-08T07:38:20.705Z,111.87
2017-11-08T07:40:48.225Z,123.43
2017-11-08T07:43:15.771Z,159.60
2017-11-08T07:45:43.450Z,145.27
2017-11-08T07:48:10.965Z,99.47
2017-11-08T07:50:38.480Z,150.97
2017-11-08T07:53:06.364Z,146.23
2017-11-08T07:55:39.528Z,118.47
2017-11-08T07:58:07.118Z,131.53
2017-11-08T08:00:34.641Z,137.80
2017-11-08T08:03:02.174Z,118.47
2017-11-08T08:05:29.718Z,128.27
2017-11-08T08:07:57.992Z,132.13
2017-11-08T08:10:25.720Z,117.83
2017-11-08T08:12:53.247Z,115.10
2017-11-08T08:15:20.786Z,85.17
2017-11-08T08:17:48.763Z,115.30
2017-11-08T08:20:16.284Z,113.70
2017-11-08T08:22:43.796Z,79.17
2017-11-08T08:25:11.681Z,109.20
2017-11-08T08:27:39.239Z,102.07
2017-11-08T08:30:06.761Z,114.23
2017-11-08T08:32:34.323Z,131.63
2017-11-08T08:35:01.872Z,114.97
2017-11-08T08:37:29.420Z,118.03
2017-11-08T08:39:57.121Z,101.40
2017-11-08T08:42:24.645Z,132.23
2017-11-08T08:44:52.155Z,90.03
2017-11-08T08:47:20.137Z,113.50
2017-11-08T08:49:47.670Z,108.17
2017-11-08T08:52:15.198Z,110.50
2017-11-08T08:54:43.166Z,111.60
2017-11-08T08:57:10.700Z,121.87
2017-11-08T08:59:38.226Z,109.07
2017-11-08T09:05:01.835Z,101.53
2017-11-08T09:07:29.413Z,119.40
2017-11-08T09:09:56.934Z,104.67
2017-11-08T09:12:24.461Z,121.73
2017-11-08T09:14:52.013Z,116.73
2017-11-08T09:17:19.630Z,99.73
2017-11-08T09:19:47.177Z,128.43
2017-11-08T09:22:14.695Z,141.00
2017-11-08T09:24:47.875Z,118.60
2017-11-08T09:27:15.393Z,91.53
2017-11-08T09:29:43.089Z,124.10
2017-11-08T09:32:10.603Z,120.80
2017-11-08T09:34:43.864Z,104.40
2017-11-08T09:37:11.375Z,130.23
2017-11-08T09:39:39.079Z,106.77
2017-11-08T09:42:25.234Z,106.47
2017-11-08T09:44:52.779Z,109.10
2017-11-08T09:47:20.304Z,115.73
2017-11-08T09:49:47.864Z,115.93
2017-11-08T09:52:15.394Z,122.93
2017-11-08T09:54:42.921Z,150.37
2017-11-08T09:57:11.383Z,134.93
2017-11-08T09:59:39.010Z,134.63
2017-11-08T10:02:06.531Z,168.53
2017-11-08T10:04:34.082Z,157.87
2017-11-08T10:07:01.602Z,148.33
2017-11-08T10:09:30.200Z,158.50
2017-11-08T10:12:01.747Z,176.93
2017-11-08T10:14:29.844Z,170.17
2017-11-08T10:16:57.363Z,133.47
2017-11-08T10:19:26.795Z,160.20
2017-11-08T10:21:54.345Z,149.97
2017-11-08T10:24:21.875Z,113.60
2017-11-08T10:26:49.925Z,157.57
2017-11-08T10:29:17.462Z,182.60
2017-11-08T10:31:44.976Z,154.50
2017-11-08T10:34:12.961Z,188.20
2017-11-08T10:36:40.474Z,154.70
2017-11-08T10:39:08.013Z,152.53
2017-11-08T10:41:35.699Z,145.47
2017-11-08T10:44:03.191Z,168.83
2017-11-08T10:46:30.736Z,168.47
2017-11-08T10:48:58.261Z,164.00
2017-11-08T10:51:29.433Z,150.27
2017-11-08T10:53:57.005Z,154.50
2017-11-08T10:56:24.570Z,169.03
2017-11-08T10:58:52.180Z,164.97
2017-11-08T11:01:20.671Z,158.40
2017-11-08T11:03:51.946Z,160.13
2017-11-08T11:06:19.525Z,169.73
2017-11-08T11:08:47.171Z,175.57
2017-11-08T11:11:14.697Z,166.53
2017-11-08T11:13:48.235Z,202.47
2017-11-08T11:16:16.621Z,150.00
2017-11-08T11:18:44.233Z,186.77
2017-11-08T11:21:11.790Z,188.30
2017-11-08T11:23:49.478Z,192.50
2017-11-08T11:26:17.081Z,203.93
2017-11-08T11:28:44.645Z,198.83
2017-11-08T11:31:12.215Z,194.70
2017-11-08T11:33:39.789Z,199.37
2017-11-08T11:36:07.326Z,207.97
2017-11-08T11:38:36.779Z,186.60
2017-11-08T11:41:04.324Z,220.57
2017-11-08T11:43:31.876Z,208.07
2017-11-08T11:45:59.588Z,199.33
2017-11-08T11:48:33.674Z,210.60
2017-11-08T11:51:06.925Z,210.03
2017-11-08T11:53:34.474Z,207.30
2017-11-08T11:56:02.041Z,191.93
2017-11-08T11:58:29.632Z,208.97
2017-11-08T12:00:57.253Z,227.67
2017-11-08T12:03:24.826Z,210.90
2017-11-08T12:05:52.441Z,215.23
2017-11-08T12:08:20.459Z,233.97
2017-11-08T12:10:48.091Z,223.27
2017-11-08T12:13:15.620Z,223.57
2017-11-08T12:15:43.365Z,227.90
2017-11-08T12:18:10.913Z,213.97
2017-11-08T12:20:38.458Z,177.97
2017-11-08T12:23:06.049Z,193.00
2017-11-08T12:25:33.588Z,234.03
2017-11-08T12:28:01.133Z,181.93
2017-11-08T12:30:28.812Z,221.67
2017-11-08T12:32:56.362Z,218.70
2017-11-08T12:35:24.737Z,225.20
2017-11-08T12:37:52.375Z,236.73
2017-11-08T12:40:20.731Z,221.33
2017-11-08T12:42:50.093Z,242.60
2017-11-08T12:45:18.039Z,236.87
2017-11-08T12:47:45.588Z,184.50
2017-11-08T12:50:13.145Z,230.37
2017-11-08T12:52:40.741Z,186.77
2017-11-08T12:55:08.314Z,215.57
2017-11-08T12:57:36.834Z,229.53
2017-11-08T13:00:05.538Z,180.60
2017-11-08T13:02:33.092Z,196.03
2017-11-08T13:05:00.682Z,206.27
2017-11-08T13:07:28.722Z,205.47
2017-11-08T13:09:56.267Z,188.60
2017-11-08T13:12:23.840Z,186.63
2017-11-08T13:14:51.442Z,204.33
2017-11-08T13:17:18.997Z,198.37
2017-11-08T13:19:46.538Z,181.17
2017-11-08T13:22:14.122Z,161.77
2017-11-08T13:24:41.670Z,190.33
2017-11-08T13:27:09.211Z,145.27
2017-11-08T13:29:36.915Z,162.50
2017-11-08T13:32:04.469Z,143.40
2017-11-08T13:34:32.009Z,159.90
2017-11-08T13:36:59.576Z,162.10
2017-11-08T13:39:27.122Z,162.67
2017-11-08T13:41:54.765Z,149.17
2017-11-08T13:44:22.366Z,144.20
2017-11-08T13:46:49.937Z,149.77
2017-11-08T13:49:17.501Z,139.07
2017-11-08T13:51:45.087Z,157.90
2017-11-08T13:54:12.645Z,121.67
2017-11-08T13:56:40.197Z,140.97
2017-11-08T13:59:07.893Z,125.20
2017-11-08T14:01:35.425Z,135.67
2017-11-08T14:04:06.815Z,140.17
2017-11-08T14:06:34.509Z,137.17
2017-11-08T14:09:02.040Z,131.70
2017-11-08T14:11:29.585Z,141.87
2017-11-08T14:13:57.143Z,114.50
2017-11-08T14:16:24.657Z,131.53
2017-11-08T14:18:52.254Z,128.33
2017-11-08T14:21:19.765Z,131.90
2017-11-08T14:23:47.333Z,146.43
2017-11-08T14:26:14.922Z,128.87
2017-11-08T14:28:42.451Z,128.80
2017-11-08T14:31:09.974Z,133.23
2017-11-08T14:33:37.573Z,123.43
2017-11-08T14:36:11.464Z,131.87
2017-11-08T14:38:39.312Z,134.77
2017-11-08T14:41:06.834Z,116.23
2017-11-08T14:43:34.361Z,138.50
2017-11-08T14:46:01.927Z,135.63
2017-11-08T14:48:29.447Z,127.90
2017-11-08T14:50:57.028Z,130.43
2017-11-08T14:53:24.554Z,137.07
2017-11-08T14:55:52.090Z,143.93
2017-11-08T14:58:19.676Z,126.40
2017-11-08T15:00:47.193Z,142.33
2017-11-08T15:03:14.721Z,125.60
2017-11-08T15:05:42.661Z,139.30
2017-11-08T15:08:10.194Z,123.10
2017-11-08T15:10:37.721Z,115.87
2017-11-08T15:13:05.260Z,119.30
2017-11-08T15:15:33.020Z,119.57
2017-11-08T15:18:00.540Z,121.37
2017-11-08T15:20:28.854Z,122.40
2017-11-08T15:22:56.751Z,111.73
2017-11-08T15:25:24.287Z,128.77
2017-11-08T15:27:51.809Z,118.40
2017-11-08T15:30:24.891Z,125.43
2017-11-08T15:32:52.419Z,117.43
2017-11-08T15:35:20.159Z,120.67
2017-11-08T15:37:47.688Z,109.67
2017-11-08T15:40:31.881Z,108.37
2017-11-08T15:42:59.412Z,136.60
2017-11-08T15:45:26.993Z,121.67
2017-11-08T15:47:54.525Z,123.10
2017-11-08T15:50:22.047Z,124.53
2017-11-08T15:52:50.064Z,133.70
2017-11-08T15:55:17.596Z,115.60
2017-11-08T15:57:45.123Z,115.57
2017-11-08T16:00:12.880Z,104.50
2017-11-08T16:02:40.414Z,116.70
2017-11-08T16:05:07.932Z,127.90
2017-11-08T16:07:35.915Z,129.83
2017-11-08T16:10:03.468Z,121.97
2017-11-08T16:12:30.998Z,114.27
2017-11-08T16:14:58.588Z,109.57
2017-11-08T16:17:26.906Z,121.23
2017-11-08T16:19:54.438Z,119.53
2017-11-08T16:22:22.106Z,127.60
2017-11-08T16:24:49.650Z,128.40
2017-11-08T16:27:17.184Z,116.57
2017-11-08T16:29:44.977Z,128.80
2017-11-08T16:32:20.968Z,119.10
2017-11-08T16:34:48.863Z,119.27
2017-11-08T16:37:16.386Z,129.23
2017-11-08T16:39:43.904Z,126.10
2017-11-08T16:42:11.541Z,119.50
2017-11-08T16:44:39.093Z,114.40
2017-11-08T16:47:06.639Z,125.00
2017-11-08T16:49:34.186Z,133.93
2017-11-08T16:52:01.763Z,130.73
2017-11-08T16:54:29.284Z,144.47
2017-11-08T16:56:56.802Z,121.30
2017-11-08T16:59:24.359Z,135.93
2017-11-08T17:01:51.950Z,121.20
2017-11-08T17:04:19.478Z,121.03
2017-11-08T17:06:47.001Z,123.17
2017-11-08T17:09:14.949Z,143.20
2017-11-08T17:11:42.466Z,131.43
2017-11-08T17:14:09.994Z,132.57
2017-11-08T17:16:37.669Z,148.80
2017-11-08T17:19:05.190Z,130.30
2017-11-08T17:21:32.713Z,117.23
2017-11-08T17:24:00.703Z,142.23
2017-11-08T17:26:28.230Z,125.03
2017-11-08T17:28:55.764Z,115.03
2017-11-08T17:31:23.347Z,116.37
2017-11-08T17:33:50.892Z,122.63
2017-11-08T17:36:18.428Z,129.07
2017-11-08T17:38:46.146Z,115.67
2017-11-08T17:41:13.689Z,123.83
2017-11-08T17:43:41.209Z,123.53
2017-11-08T17:46:08.758Z,118.73
2017-11-08T17:48:38.165Z,124.10
2017-11-08T17:51:05.754Z,108.13
2017-11-08T17:53:33.278Z,115.70
2017-11-08T17:56:00.806Z,116.03
2017-11-08T17:58:28.882Z,132.43
2017-11-08T18:00:56.404Z,121.77
2017-11-08T18:03:23.933Z,126.17
2017-11-08T18:05:51.698Z,109.50
2017-11-08T18:08:19.218Z,116.03
2017-11-08T18:10:46.754Z,115.83
2017-11-08T18:13:14.325Z,108.40
2017-11-08T18:15:41.875Z,126.70
2017-11-08T18:18:09.401Z,105.63
2017-11-08T18:20:37.134Z,131.03
2017-11-08T18:23:04.673Z,111.37
2017-11-08T18:25:32.203Z,103.43
2017-11-08T18:28:00.091Z,108.80
2017-11-08T18:30:27.618Z,110.07
2017-11-08T18:32:55.158Z,139.53
2017-11-08T18:35:22.738Z,151.97
2017-11-08T18:37:50.270Z,124.37
2017-11-08T18:40:17.792Z,122.17
2017-11-08T18:42:45.493Z,115.70
2017-11-08T18:45:13.021Z,113.87
2017-11-08T18:47:40.547Z,116.00
2017-11-08T18:50:08.208Z,104.50
2017-11-08T18:52:35.892Z,102.50
2017-11-08T18:55:03.424Z,120.87
2017-11-08T18:57:30.958Z,124.40
2017-11-08T18:59:58.549Z,107.53
2017-11-08T19:02:26.064Z,107.97
2017-11-08T19:04:53.582Z,98.97
2017-11-08T19:07:21.149Z,105.37
2017-11-08T19:09:48.668Z,106.77
2017-11-08T19:12:16.194Z,104.47
2017-11-08T19:14:43.751Z,116.87
2017-11-08T19:17:11.318Z,106.00
2017-11-08T19:19:38.901Z,103.43
2017-11-08T19:22:06.453Z,101.40
2017-11-08T19:24:34.017Z,117.80
2017-11-08T19:27:01.726Z,114.67
2017-11-08T19:29:29.250Z,95.03
2017-11-08T19:31:56.771Z,119.27
2017-11-08T19:34:24.738Z,90.57
2017-11-08T19:36:52.466Z,116.60
2017-11-08T19:39:20.026Z,120.63
2017-11-08T19:41:47.757Z,97.50
2017-11-08T19:44:15.277Z,105.13
2017-11-08T19:46:42.900Z,95.57
2017-11-08T19:49:10.504Z,112.20
2017-11-08T19:51:38.030Z,98.00
2017-11-08T19:54:05.558Z,104.87
2017-11-08T19:56:33.671Z,106.73
2017-11-08T19:59:01.205Z,105.77
2017-11-08T20:01:28.747Z,115.27
2017-11-08T20:03:56.423Z,117.33
2017-11-08T20:06:23.957Z,115.63
2017-11-08T20:08:51.485Z,113.13
2017-11-08T20:11:19.081Z,101.50
2017-11-08T20:13:46.632Z,104.87
2017-11-08T20:16:14.174Z,115.60
2017-11-08T20:18:41.877Z,106.47
2017-11-08T20:21:09.389Z,104.90
2017-11-08T20:23:36.918Z,119.43
2017-11-08T20:26:04.466Z,108.93
2017-11-08T20:28:31.985Z,96.33
2017-11-08T20:30:59.586Z,102.07
2017-11-08T20:33:27.111Z,106.97
2017-11-08T20:35:54.635Z,104.73
2017-11-08T20:38:22.180Z,101.07
2017-11-08T20:40:49.709Z,100.90
2017-11-08T20:43:17.393Z,102.33
2017-11-08T20:45:44.905Z,109.77
2017-11-08T20:48:12.431Z,108.73
2017-11-08T20:50:40.103Z,107.17
2017-11-08T20:53:07.618Z,109.17
2017-11-08T20:55:35.150Z,97.27
2017-11-08T20:58:02.834Z,103.80
2017-11-08T21:00:30.352Z,106.13
2017-11-08T21:02:57.872Z,102.80
2017-11-08T21:05:25.412Z,100.83
2017-11-08T21:07:52.934Z,99.13
2017-11-08T21:10:20.501Z,108.60
2017-11-08T21:12:48.031Z,100.23
2017-11-08T21:15:15.734Z,98.87
2017-11-08T21:17:43.258Z,103.40
2017-11-08T21:20:10.786Z,110.87
2017-11-08T21:22:38.417Z,115.47
2017-11-08T21:25:06.911Z,95.20
2017-11-08T21:27:34.504Z,103.50
2017-11-08T21:30:02.105Z,102.40
2017-11-08T21:32:29.635Z,97.53
2017-11-08T21:34:57.174Z,94.83
2017-11-08T21:37:24.926Z,108.03
2017-11-08T21:39:52.457Z,111.13
2017-11-08T21:42:19.978Z,115.90
2017-11-08T21:44:47.558Z,112.87
2017-11-08T21:47:15.086Z,108.07
2017-11-08T21:49:42.613Z,98.53
2017-11-08T21:52:10.376Z,117.93
2017-11-08T21:54:37.900Z,87.07
2017-11-08T21:57:05.430Z,110.53
2017-11-08T21:59:33.013Z,97.90
2017-11-08T22:02:00.546Z,106.80
2017-11-08T22:04:28.066Z,102.40
2017-11-08T22:06:55.633Z,111.43
2017-11-08T22:09:23.159Z,114.40
2017-11-08T22:11:50.689Z,98.57
2017-11-08T22:14:19.214Z,103.13
2017-11-08T22:16:46.742Z,92.63
2017-11-08T22:19:14.265Z,110.33
2017-11-08T22:21:42.157Z,104.97
2017-11-08T22:24:09.683Z,96.50
2017-11-08T22:26:37.218Z,117.30
2017-11-08T22:29:04.779Z,113.03
2017-11-08T22:31:32.692Z,109.83
2017-11-08T22:34:00.320Z,121.40
2017-11-08T22:36:27.841Z,121.67
2017-11-08T22:38:55.414Z,110.10
2017-11-08T22:41:22.966Z,120.20
2017-11-08T22:43:50.489Z,113.63
2017-11-08T22:46:18.159Z,121.60
2017-11-08T22:48:45.836Z,108.07
2017-11-08T22:51:13.359Z,113.10
2017-11-08T22:53:40.953Z,105.60
2017-11-08T22:56:08.472Z,116.27
2017-11-08T22:58:36.003Z,99.23
2017-11-08T23:01:03.654Z,97.70
2017-11-08T23:03:31.177Z,109.13
2017-11-08T23:05:58.701Z,126.63
2017-11-08T23:08:26.281Z,100.50
2017-11-08T23:10:53.825Z,122.63
2017-11-08T23:13:21.354Z,113.67
2017-11-08T23:15:49.029Z,116.23
2017-11-08T23:18:16.926Z,125.00
2017-11-08T23:20:44.497Z,100.70
2017-11-08T23:23:12.352Z,113.20
2017-11-08T23:25:40.272Z,105.37
2017-11-08T23:28:08.492Z,105.43
2017-11-08T23:30:36.041Z,100.80
2017-11-08T23:33:03.641Z,121.20
2017-11-08T23:35:31.178Z,99.40
2017-11-08T23:37:58.725Z,105.03
2017-11-08T23:40:26.730Z,111.03
2017-11-08T23:42:54.259Z,107.20
2017-11-08T23:45:21.789Z,111.00
2017-11-08T23:47:49.408Z,117.00
2017-11-08T23:50:17.035Z,114.87
2017-11-08T23:52:44.570Z,114.40
2017-11-08T23:55:12.166Z,110.97
2017-11-08T23:57:39.701Z,105.07
